| time (UTC) | temp F | wind direction | speed MPH | gust MPH | rain 1hr in | rain 24hr in | rain mn in | humidity % | barometer mb |
| 20260906161555 | 63 | 355 | 1.0 | 3.0 | 0.00 | 0.13 | 0.12 | 81 | 1015.9 |
| 20260906161042 | 63 | 211 | 0.0 | 2.0 | 0.00 | 0.13 | 0.12 | 84 | 1015.8 |
| 20260906160527 | 63 | 208 | 0.0 | 1.0 | 0.00 | 0.13 | 0.12 | 82 | 1015.8 |
| 20260906160047 | 63 | 228 | 0.0 | 2.0 | 0.00 | 0.13 | 0.12 | 86 | 1015.9 |
| 20260906155533 | 63 | 227 | 0.0 | 2.0 | 0.00 | 0.13 | 0.12 | 84 | 1015.8 |
| 20260906155032 | 63 | 175 | 0.0 | 2.0 | 0.00 | 0.13 | 0.12 | 84 | 1015.8 |
| 20260906154552 | 62 | 173 | 1.0 | 2.0 | 0.00 | 0.13 | 0.12 | 82 | 1015.9 |
| 20260906154053 | 62 | 167 | 2.0 | 2.0 | 0.00 | 0.13 | 0.12 | 84 | 1016.1 |
| 20260906153529 | 62 | 181 | 1.0 | 2.0 | 0.00 | 0.13 | 0.12 | 84 | 1016.1 |
| 20260906153044 | 62 | 215 | 1.0 | 2.0 | 0.00 | 0.13 | 0.12 | 84 | 1016.0 |
| 20260906152547 | 62 | 217 | 0.0 | 3.0 | 0.00 | 0.13 | 0.12 | 86 | 1016.0 |
| 20260906152053 | 62 | 155 | 0.0 | 3.0 | 0.00 | 0.13 | 0.12 | 87 | 1016.0 |
| 20260906151539 | 62 | 186 | 1.0 | 3.0 | 0.00 | 0.13 | 0.12 | 87 | 1016.0 |
| 20260906151040 | 62 | 142 | 0.0 | 2.0 | 0.00 | 0.13 | 0.12 | 88 | 1016.0 |
| 20260906150551 | 62 | 143 | 0.0 | 2.0 | 0.00 | 0.13 | 0.12 | 86 | 1016.0 |
| 20260906150051 | 61 | 142 | 2.0 | 2.0 | 0.00 | 0.13 | 0.12 | 87 | 1016.0 |
| 20260906145554 | 61 | 288 | 1.0 | 3.0 | 0.00 | 0.13 | 0.12 | 88 | 1016.0 |
| 20260906145042 | 61 | 136 | 0.0 | 3.0 | 0.00 | 0.13 | 0.12 | 89 | 1016.0 |
| 20260906144533 | 60 | 155 | 0.0 | 3.0 | 0.00 | 0.13 | 0.12 | 92 | 1016.0 |
| 20260906144036 | 60 | 164 | 1.0 | 2.0 | 0.00 | 0.13 | 0.12 | 92 | 1016.0 |
| 20260906143556 | 60 | 118 | 1.0 | 2.0 | 0.00 | 0.13 | 0.12 | 93 | 1016.1 |
| 20260906143051 | 60 | 107 | 0.0 | 2.0 | 0.00 | 0.13 | 0.12 | 94 | 1016.1 |
| 20260906142533 | 59 | 107 | 0.0 | 2.0 | 0.00 | 0.13 | 0.12 | 93 | 1016.0 |
| 20260906142036 | 59 | 196 | 0.0 | 2.0 | 0.00 | 0.13 | 0.12 | 94 | 1015.9 |
| 20260906141559 | 59 | 196 | 1.0 | 2.0 | 0.00 | 0.13 | 0.12 | 95 | 1015.9 |
| 20260906141040 | 59 | 197 | 0.0 | 0.0 | 0.00 | 0.13 | 0.12 | 94 | 1015.8 |
| 20260906140620 | 59 | 197 | 0.0 | 1.0 | 0.00 | 0.13 | 0.12 | 95 | 1015.7 |
| 20260906140040 | 59 | 197 | 0.0 | 1.0 | 0.00 | 0.13 | 0.12 | 94 | 1015.8 |
| 20260906135545 | 59 | 197 | 0.0 | 2.0 | 0.00 | 0.13 | 0.12 | 94 | 1015.8 |
| 20260906135037 | 59 | 197 | 0.0 | 2.0 | 0.00 | 0.13 | 0.12 | 95 | 1015.7 |
| 20260906134543 | 59 | 221 | 1.0 | 2.0 | 0.00 | 0.13 | 0.12 | 94 | 1015.7 |
| 20260906134026 | 58 | 186 | 0.0 | 1.0 | 0.00 | 0.13 | 0.12 | 95 | 1015.7 |
| 20260906133526 | 58 | 217 | 0.0 | 0.0 | 0.00 | 0.13 | 0.12 | 96 | 1015.8 |
| 20260906133028 | 58 | 216 | 0.0 | 0.0 | 0.00 | 0.13 | 0.12 | 95 | 1015.8 |
| 20260906132531 | 58 | 216 | 0.0 | 0.0 | 0.00 | 0.13 | 0.12 | 95 | 1015.7 |
| 20260906132037 | 58 | 216 | 0.0 | 0.0 | 0.00 | 0.13 | 0.12 | 95 | 1015.8 |
| 20260906131615 | 58 | 216 | 0.0 | 1.0 | 0.00 | 0.13 | 0.12 | 96 | 1015.7 |
| 20260906131025 | 58 | 216 | 0.0 | 1.0 | 0.00 | 0.13 | 0.12 | 96 | 1015.7 |
| 20260906130547 | 58 | 215 | 0.0 | 2.0 | 0.00 | 0.13 | 0.12 | 95 | 1015.6 |
| 20260906130051 | 57 | 217 | 0.0 | 2.0 | 0.00 | 0.13 | 0.12 | 96 | 1015.6 |
| 20260906125536 | 58 | 215 | 0.0 | 1.0 | 0.00 | 0.13 | 0.12 | 96 | 1015.7 |
| 20260906125039 | 57 | 248 | 0.0 | 0.0 | 0.00 | 0.13 | 0.12 | 96 | 1015.7 |
| 20260906124525 | 57 | 248 | 0.0 | 0.0 | 0.00 | 0.13 | 0.12 | 96 | 1015.8 |
| 20260906124028 | 57 | 248 | 0.0 | 0.0 | 0.00 | 0.13 | 0.12 | 96 | 1015.7 |
| 20260906123532 | 57 | 248 | 0.0 | 0.0 | 0.00 | 0.13 | 0.12 | 96 | 1015.6 |
| 20260906123034 | 57 | 248 | 0.0 | 0.0 | 0.00 | 0.13 | 0.12 | 96 | 1015.6 |
| 20260906122533 | 57 | 248 | 0.0 | 0.0 | 0.00 | 0.13 | 0.12 | 96 | 1015.6 |
| 20260906122035 | 57 | 247 | 0.0 | 0.0 | 0.00 | 0.13 | 0.12 | 96 | 1015.5 |
| 20260906121538 | 57 | 247 | 0.0 | 0.0 | 0.00 | 0.13 | 0.12 | 96 | 1015.5 |
| 20260906121044 | 57 | 247 | 0.0 | 0.0 | 0.00 | 0.13 | 0.12 | 96 | 1015.4 |
| 20260906120528 | 57 | 247 | 0.0 | 0.0 | 0.00 | 0.13 | 0.12 | 96 | 1015.4 |
| 20260906120033 | 57 | 248 | 0.0 | 0.0 | 0.00 | 0.13 | 0.12 | 96 | 1015.3 |
| 20260906115550 | 57 | 248 | 0.0 | 0.0 | 0.00 | 0.13 | 0.12 | 97 | 1015.3 |
| 20260906115051 | 56 | 246 | 0.0 | 0.0 | 0.01 | 0.13 | 0.12 | 97 | 1015.2 |
| 20260906114554 | 56 | 246 | 0.0 | 0.0 | 0.01 | 0.13 | 0.12 | 96 | 1015.2 |
| 20260906114024 | 56 | 246 | 0.0 | 0.0 | 0.01 | 0.13 | 0.12 | 96 | 1015.2 |
| 20260906113543 | 56 | 246 | 0.0 | 0.0 | 0.01 | 0.13 | 0.12 | 96 | 1015.2 |
| 20260906113045 | 56 | 246 | 0.0 | 0.0 | 0.01 | 0.13 | 0.12 | 96 | 1015.1 |
| 20260906112548 | 56 | 246 | 0.0 | 0.0 | 0.04 | 0.13 | 0.12 | 96 | 1015.1 |
| 20260906112051 | 56 | 246 | 0.0 | 0.0 | 0.07 | 0.13 | 0.12 | 96 | 1015.0 |
| 20260906111529 | 56 | 246 | 0.0 | 0.0 | 0.07 | 0.13 | 0.12 | 96 | 1015.0 |
| 20260906111035 | 56 | 246 | 0.0 | 0.0 | 0.08 | 0.13 | 0.12 | 96 | 1014.9 |
| 20260906110615 | 56 | 246 | 0.0 | 0.0 | 0.09 | 0.13 | 0.12 | 96 | 1014.9 |
| 20260906110057 | 56 | 246 | 0.0 | 0.0 | 0.12 | 0.13 | 0.12 | 96 | 1014.8 |
| 20260906105600 | 56 | 246 | 0.0 | 0.0 | 0.12 | 0.13 | 0.12 | 96 | 1014.7 |
| 20260906105042 | 56 | 246 | 0.0 | 0.0 | 0.11 | 0.12 | 0.11 | 96 | 1014.6 |
| 20260906104539 | 56 | 246 | 0.0 | 0.0 | 0.11 | 0.12 | 0.11 | 95 | 1014.7 |
| 20260906104046 | 56 | 246 | 0.0 | 0.0 | 0.11 | 0.12 | 0.11 | 95 | 1014.6 |
| 20260906103529 | 56 | 246 | 0.0 | 0.0 | 0.11 | 0.12 | 0.11 | 95 | 1014.5 |
| 20260906103031 | 56 | 246 | 0.0 | 0.0 | 0.11 | 0.12 | 0.11 | 95 | 1014.4 |
| 20260906102552 | 56 | 246 | 0.0 | 0.0 | 0.08 | 0.09 | 0.08 | 94 | 1014.3 |
| 20260906102029 | 56 | 246 | 0.0 | 0.0 | 0.05 | 0.06 | 0.05 | 94 | 1014.2 |
| 20260906101604 | 56 | 246 | 0.0 | 0.0 | 0.05 | 0.06 | 0.05 | 94 | 1014.1 |
| 20260906101048 | 56 | 246 | 0.0 | 1.0 | 0.04 | 0.05 | 0.04 | 93 | 1014.1 |
| 20260906100532 | 56 | 246 | 0.0 | 1.0 | 0.02 | 0.03 | 0.02 | 93 | 1014.1 |
| 20260906100034 | 56 | 246 | 0.0 | 1.0 | 0.00 | 0.01 | 0.00 | 93 | 1014.1 |
| 20260906095612 | 56 | 246 | 0.0 | 1.0 | 0.00 | 0.01 | 0.00 | 93 | 1014.0 |
| 20260906095057 | 56 | 246 | 0.0 | 0.0 | 0.00 | 0.01 | 0.00 | 93 | 1013.9 |
| 20260906094543 | 56 | 246 | 0.0 | 0.0 | 0.00 | 0.01 | 0.00 | 93 | 1013.8 |
| 20260906094042 | 56 | 246 | 0.0 | 0.0 | 0.00 | 0.01 | 0.00 | 93 | 1013.8 |
| 20260906093546 | 56 | 246 | 0.0 | 0.0 | 0.00 | 0.01 | 0.00 | 93 | 1013.8 |
| 20260906093027 | 56 | 246 | 0.0 | 0.0 | 0.00 | 0.01 | 0.00 | 93 | 1013.8 |
| 20260906092530 | 56 | 246 | 0.0 | 1.0 | 0.00 | 0.01 | 0.00 | 93 | 1013.8 |
| 20260906092032 | 56 | 246 | 0.0 | 1.0 | 0.00 | 0.01 | 0.00 | 93 | 1013.7 |
| 20260906091535 | 57 | 246 | 0.0 | 1.0 | 0.00 | 0.01 | 0.00 | 93 | 1013.6 |
| 20260906091034 | 57 | 246 | 0.0 | 1.0 | 0.00 | 0.01 | 0.00 | 92 | 1013.5 |
| 20260906090613 | 57 | 246 | 0.0 | 0.0 | 0.00 | 0.01 | 0.00 | 93 | 1013.4 |
| 20260906090034 | 57 | 246 | 0.0 | 0.0 | 0.00 | 0.01 | 0.00 | 93 | 1013.4 |
| 20260906085540 | 57 | 246 | 0.0 | 2.0 | 0.00 | 0.01 | 0.00 | 92 | 1013.4 |
| 20260906085103 | 57 | 247 | 0.0 | 2.0 | 0.00 | 0.01 | 0.00 | 92 | 1013.5 |
| 20260906084525 | 57 | 235 | 0.0 | 0.0 | 0.00 | 0.01 | 0.00 | 93 | 1013.5 |
| 20260906084031 | 57 | 235 | 0.0 | 0.0 | 0.00 | 0.01 | 0.00 | 92 | 1013.5 |
| 20260906083531 | 57 | 235 | 0.0 | 0.0 | 0.00 | 0.01 | 0.00 | 93 | 1013.6 |
| 20260906083033 | 57 | 235 | 0.0 | 0.0 | 0.00 | 0.01 | 0.00 | 93 | 1013.6 |
| 20260906082535 | 57 | 235 | 0.0 | 0.0 | 0.00 | 0.01 | 0.00 | 93 | 1013.5 |
| 20260906082024 | 57 | 235 | 0.0 | 0.0 | 0.00 | 0.01 | 0.00 | 93 | 1013.5 |
| 20260906081527 | 57 | 235 | 0.0 | 0.0 | 0.00 | 0.01 | 0.00 | 93 | 1013.5 |
| 20260906081033 | 57 | 235 | 0.0 | 0.0 | 0.00 | 0.01 | 0.00 | 93 | 1013.3 |
| 20260906080555 | 57 | 235 | 0.0 | 0.0 | 0.00 | 0.01 | 0.00 | 93 | 1013.4 |
| 20260906080032 | 57 | 235 | 0.0 | 1.0 | 0.00 | 0.01 | 0.00 | 93 | 1013.4 |
| 20260906075535 | 57 | 235 | 0.0 | 1.0 | 0.00 | 0.01 | 0.00 | 93 | 1013.4 |
| 20260906075038 | 57 | 235 | 0.0 | 1.0 | 0.00 | 0.01 | 0.00 | 92 | 1013.5 |
| 20260906074541 | 57 | 235 | 0.0 | 1.0 | 0.00 | 0.01 | 0.00 | 92 | 1013.5 |
| 20260906074024 | 57 | 235 | 0.0 | 1.0 | 0.00 | 0.01 | 0.00 | 92 | 1013.7 |
| 20260906073531 | 57 | 235 | 0.0 | 2.0 | 0.00 | 0.01 | 0.00 | 92 | 1013.7 |
| 20260906073033 | 58 | 241 | 0.0 | 1.0 | 0.00 | 0.01 | 0.00 | 93 | 1013.7 |
| 20260906072532 | 58 | 242 | 0.0 | 1.0 | 0.00 | 0.01 | 0.00 | 93 | 1013.7 |
| 20260906072035 | 58 | 242 | 0.0 | 0.0 | 0.00 | 0.01 | 0.00 | 93 | 1013.6 |
| 20260906071613 | 58 | 242 | 0.0 | 1.0 | 0.00 | 0.01 | 0.00 | 93 | 1013.5 |
| 20260906071056 | 58 | 242 | 0.0 | 1.0 | 0.00 | 0.01 | 0.00 | 93 | 1013.4 |
| 20260906070540 | 58 | 242 | 0.0 | 0.0 | 0.00 | 0.01 | 0.00 | 93 | 1013.4 |
| 20260906070045 | 58 | 242 | 0.0 | 0.0 | 0.00 | 0.01 | 0.00 | 94 | 1013.4 |
| 20260906065544 | 58 | 242 | 0.0 | 0.0 | 0.00 | 0.01 | 0.00 | 94 | 1013.3 |
| 20260906065027 | 58 | 242 | 0.0 | 0.0 | 0.00 | 0.01 | 0.00 | 94 | 1013.3 |
| 20260906064530 | 58 | 242 | 0.0 | 0.0 | 0.00 | 0.01 | 0.00 | 93 | 1013.4 |
| 20260906064033 | 58 | 242 | 0.0 | 0.0 | 0.00 | 0.01 | 0.00 | 93 | 1013.3 |
| 20260906063537 | 58 | 242 | 0.0 | 1.0 | 0.00 | 0.01 | 0.00 | 93 | 1013.3 |
| 20260906063039 | 58 | 242 | 0.0 | 1.0 | 0.00 | 0.01 | 0.00 | 94 | 1013.4 |
| 20260906062525 | 58 | 242 | 0.0 | 0.0 | 0.00 | 0.01 | 0.00 | 94 | 1013.4 |
| 20260906062119 | 58 | 242 | 0.0 | 1.0 | 0.00 | 0.01 | 0.00 | 94 | 1013.5 |
| 20260906061526 | 59 | 242 | 0.0 | 1.0 | 0.00 | 0.01 | 0.00 | 94 | 1013.6 |
| 20260906061047 | 59 | 242 | 0.0 | 1.0 | 0.00 | 0.01 | 0.00 | 93 | 1013.5 |
| 20260906060557 | 59 | 242 | 0.0 | 1.0 | 0.00 | 0.01 | 0.00 | 94 | 1013.5 |
| 20260906060026 | 59 | 242 | 0.0 | 1.0 | 0.00 | 0.01 | 0.00 | 94 | 1013.7 |
| 20260906055543 | 59 | 242 | 0.0 | 1.0 | 0.00 | 0.01 | 0.00 | 94 | 1013.7 |
| 20260906055045 | 59 | 242 | 0.0 | 1.0 | 0.00 | 0.01 | 0.00 | 94 | 1013.7 |
| 20260906054547 | 59 | 242 | 0.0 | 0.0 | 0.00 | 0.01 | 0.00 | 95 | 1013.7 |
| 20260906054049 | 59 | 242 | 0.0 | 0.0 | 0.00 | 0.01 | 0.00 | 94 | 1013.8 |
| 20260906053534 | 59 | 242 | 0.0 | 0.0 | 0.00 | 0.01 | 0.00 | 94 | 1013.7 |
| 20260906053038 | 59 | 242 | 0.0 | 1.0 | 0.00 | 0.01 | 0.00 | 95 | 1013.7 |
| 20260906052544 | 59 | 242 | 0.0 | 1.0 | 0.00 | 0.01 | 0.00 | 95 | 1013.8 |
| 20260906052033 | 59 | 242 | 0.0 | 0.0 | 0.00 | 0.01 | 0.00 | 95 | 1013.7 |
| 20260906051540 | 59 | 242 | 0.0 | 0.0 | 0.00 | 0.01 | 0.00 | 95 | 1013.8 |
| 20260906051059 | 59 | 242 | 0.0 | 0.0 | 0.00 | 0.01 | 0.00 | 95 | 1013.7 |
| 20260906050542 | 58 | 242 | 0.0 | 1.0 | 0.00 | 0.01 | 0.00 | 96 | 1013.7 |
| 20260906050023 | 58 | 242 | 0.0 | 1.0 | 0.00 | 0.01 | 0.00 | 96 | 1013.6 |
| 20260906045527 | 58 | 236 | 0.0 | 1.0 | 0.00 | 0.01 | 0.00 | 96 | 1013.6 |
| 20260906045103 | 58 | 236 | 1.0 | 1.0 | 0.00 | 0.01 | 0.00 | 96 | 1013.6 |
| 20260906044551 | 58 | 238 | 0.0 | 1.0 | 0.00 | 0.01 | 0.00 | 96 | 1013.7 |
| 20260906044034 | 58 | 238 | 1.0 | 1.0 | 0.00 | 0.01 | 0.00 | 96 | 1013.6 |
| 20260906043534 | 58 | 238 | 0.0 | 1.0 | 0.00 | 0.01 | 0.00 | 95 | 1013.5 |
| 20260906043039 | 58 | 238 | 0.0 | 0.0 | 0.00 | 0.01 | 0.00 | 95 | 1013.5 |
| 20260906042602 | 58 | 238 | 0.0 | 0.0 | 0.00 | 0.01 | 0.00 | 95 | 1013.4 |
| 20260906042024 | 58 | 238 | 0.0 | 0.0 | 0.00 | 0.01 | 0.00 | 95 | 1013.4 |
| 20260906041527 | 58 | 238 | 0.0 | 0.0 | 0.00 | 0.01 | 0.00 | 95 | 1013.5 |
| 20260906041033 | 58 | 238 | 0.0 | 0.0 | 0.00 | 0.01 | 0.00 | 95 | 1013.5 |
| 20260906040538 | 58 | 238 | 0.0 | 0.0 | 0.00 | 0.01 | 0.00 | 95 | 1013.3 |
| 20260906040032 | 58 | 238 | 0.0 | 0.0 | 0.00 | 0.01 | 0.01 | 95 | 1013.3 |
| 20260906035553 | 59 | 238 | 0.0 | 0.0 | 0.00 | 0.01 | 0.01 | 95 | 1013.4 |
| 20260906035056 | 59 | 238 | 0.0 | 0.0 | 0.00 | 0.01 | 0.01 | 95 | 1013.4 |
| 20260906034527 | 59 | 238 | 0.0 | 1.0 | 0.00 | 0.01 | 0.01 | 95 | 1013.3 |
| 20260906034045 | 59 | 238 | 0.0 | 1.0 | 0.00 | 0.01 | 0.01 | 95 | 1013.2 |
| 20260906033550 | 59 | 238 | 0.0 | 0.0 | 0.00 | 0.01 | 0.01 | 94 | 1013.2 |
| 20260906033031 | 59 | 238 | 0.0 | 0.0 | 0.00 | 0.01 | 0.01 | 94 | 1013.2 |
| 20260906032531 | 59 | 238 | 0.0 | 0.0 | 0.00 | 0.01 | 0.01 | 94 | 1013.2 |
| 20260906032034 | 60 | 238 | 0.0 | 0.0 | 0.00 | 0.01 | 0.01 | 94 | 1013.2 |
| 20260906031540 | 60 | 238 | 0.0 | 0.0 | 0.00 | 0.01 | 0.01 | 94 | 1013.1 |
| 20260906031023 | 60 | 238 | 0.0 | 0.0 | 0.00 | 0.01 | 0.01 | 94 | 1013.0 |
| 20260906030531 | 60 | 238 | 0.0 | 0.0 | 0.00 | 0.01 | 0.01 | 94 | 1013.0 |
| 20260906030033 | 60 | 238 | 0.0 | 0.0 | 0.00 | 0.01 | 0.01 | 94 | 1013.0 |
| 20260906025539 | 60 | 238 | 0.0 | 0.0 | 0.00 | 0.01 | 0.01 | 94 | 1013.1 |
| 20260906025038 | 60 | 238 | 0.0 | 0.0 | 0.00 | 0.01 | 0.01 | 94 | 1013.1 |
| 20260906024541 | 60 | 238 | 0.0 | 0.0 | 0.00 | 0.01 | 0.01 | 94 | 1013.1 |
| 20260906024044 | 60 | 238 | 0.0 | 0.0 | 0.00 | 0.01 | 0.01 | 94 | 1013.1 |
| 20260906023548 | 60 | 238 | 0.0 | 0.0 | 0.00 | 0.01 | 0.01 | 94 | 1013.1 |
| 20260906023047 | 60 | 238 | 0.0 | 0.0 | 0.00 | 0.01 | 0.01 | 94 | 1013.1 |
| 20260906022529 | 60 | 238 | 0.0 | 0.0 | 0.00 | 0.01 | 0.01 | 94 | 1013.1 |
| 20260906022051 | 60 | 238 | 0.0 | 0.0 | 0.00 | 0.01 | 0.01 | 94 | 1013.1 |
| 20260906021533 | 60 | 238 | 0.0 | 0.0 | 0.00 | 0.01 | 0.01 | 94 | 1013.0 |
| 20260906021039 | 60 | 238 | 0.0 | 0.0 | 0.00 | 0.01 | 0.01 | 94 | 1013.0 |
| 20260906020559 | 61 | 238 | 0.0 | 0.0 | 0.00 | 0.01 | 0.01 | 94 | 1013.0 |
| 20260906020028 | 61 | 238 | 0.0 | 0.0 | 0.00 | 0.01 | 0.01 | 94 | 1012.9 |
| 20260906015531 | 61 | 238 | 0.0 | 0.0 | 0.00 | 0.01 | 0.01 | 94 | 1012.9 |
| 20260906015049 | 61 | 238 | 0.0 | 0.0 | 0.00 | 0.01 | 0.01 | 95 | 1012.9 |
| 20260906014555 | 61 | 238 | 0.0 | 0.0 | 0.00 | 0.01 | 0.01 | 94 | 1012.9 |
| 20260906014026 | 60 | 238 | 0.0 | 0.0 | 0.00 | 0.01 | 0.01 | 94 | 1012.8 |
| 20260906013530 | 61 | 238 | 0.0 | 0.0 | 0.00 | 0.01 | 0.01 | 94 | 1012.8 |
| 20260906013048 | 61 | 238 | 0.0 | 1.0 | 0.00 | 0.01 | 0.01 | 94 | 1012.9 |
| 20260906012552 | 61 | 238 | 0.0 | 1.0 | 0.00 | 0.01 | 0.01 | 94 | 1012.8 |
| 20260906012039 | 61 | 238 | 0.0 | 0.0 | 0.00 | 0.01 | 0.01 | 94 | 1012.8 |
| 20260906011525 | 61 | 238 | 0.0 | 0.0 | 0.00 | 0.01 | 0.01 | 94 | 1012.8 |
| 20260906011047 | 61 | 238 | 0.0 | 0.0 | 0.00 | 0.01 | 0.01 | 94 | 1012.8 |
| 20260906010609 | 61 | 237 | 0.0 | 0.0 | 0.00 | 0.01 | 0.01 | 94 | 1012.8 |
| 20260906010055 | 61 | 237 | 0.0 | 0.0 | 0.00 | 0.01 | 0.01 | 94 | 1012.8 |
| 20260906005528 | 61 | 237 | 0.0 | 0.0 | 0.00 | 0.01 | 0.01 | 93 | 1012.8 |
| 20260906005046 | 61 | 237 | 0.0 | 0.0 | 0.00 | 0.01 | 0.01 | 93 | 1012.7 |
| 20260906004531 | 61 | 237 | 0.0 | 0.0 | 0.00 | 0.01 | 0.01 | 93 | 1012.7 |
| 20260906004033 | 61 | 237 | 0.0 | 0.0 | 0.00 | 0.01 | 0.01 | 93 | 1012.7 |
| 20260906003534 | 61 | 237 | 0.0 | 0.0 | 0.00 | 0.01 | 0.01 | 93 | 1012.7 |
| 20260906003038 | 61 | 237 | 0.0 | 0.0 | 0.00 | 0.01 | 0.01 | 93 | 1012.6 |
| 20260906002551 | 61 | 237 | 0.0 | 0.0 | 0.00 | 0.01 | 0.01 | 93 | 1012.6 |
| 20260906002108 | 61 | 237 | 0.0 | 0.0 | 0.00 | 0.01 | 0.01 | 93 | 1012.6 |
| 20260906001549 | 61 | 237 | 0.0 | 0.0 | 0.00 | 0.01 | 0.01 | 92 | 1012.6 |
| 20260906001053 | 61 | 237 | 0.0 | 0.0 | 0.00 | 0.01 | 0.01 | 92 | 1012.7 |
| 20260906000535 | 61 | 237 | 0.0 | 0.0 | 0.00 | 0.01 | 0.01 | 92 | 1012.6 |
| 20260906000039 | 61 | 237 | 0.0 | 0.0 | 0.00 | 0.01 | 0.01 | 92 | 1012.5 |
| 20260905235545 | 62 | 237 | 0.0 | 0.0 | 0.00 | 0.01 | 0.01 | 92 | 1012.4 |
| 20260905235028 | 62 | 237 | 0.0 | 0.0 | 0.00 | 0.01 | 0.01 | 92 | 1012.3 |
| 20260905234534 | 62 | 237 | 0.0 | 1.0 | 0.00 | 0.01 | 0.01 | 92 | 1012.3 |
| 20260905234037 | 62 | 237 | 0.0 | 1.0 | 0.00 | 0.01 | 0.01 | 91 | 1012.2 |
| 20260905233541 | 62 | 237 | 0.0 | 0.0 | 0.00 | 0.01 | 0.01 | 91 | 1012.2 |
| 20260905233026 | 62 | 237 | 0.0 | 1.0 | 0.00 | 0.01 | 0.01 | 90 | 1012.1 |
| 20260905232525 | 63 | 237 | 0.0 | 0.0 | 0.00 | 0.01 | 0.01 | 90 | 1012.0 |
| 20260905232028 | 63 | 237 | 0.0 | 1.0 | 0.00 | 0.01 | 0.01 | 89 | 1012.0 |
| 20260905231551 | 63 | 237 | 0.0 | 1.0 | 0.00 | 0.01 | 0.01 | 89 | 1012.0 |
| 20260905231048 | 63 | 237 | 0.0 | 1.0 | 0.00 | 0.01 | 0.01 | 89 | 1012.0 |
| 20260905230553 | 64 | 237 | 0.0 | 1.0 | 0.00 | 0.01 | 0.01 | 89 | 1012.0 |
| 20260905230025 | 64 | 237 | 0.0 | 0.0 | 0.00 | 0.01 | 0.01 | 88 | 1012.0 |
| 20260905225559 | 64 | 237 | 0.0 | 1.0 | 0.00 | 0.01 | 0.01 | 87 | 1012.0 |
| 20260905225044 | 65 | 237 | 0.0 | 1.0 | 0.00 | 0.01 | 0.01 | 87 | 1012.0 |
| 20260905224550 | 65 | 237 | 0.0 | 1.0 | 0.00 | 0.01 | 0.01 | 87 | 1012.0 |
| 20260905224053 | 66 | 237 | 0.0 | 1.0 | 0.00 | 0.01 | 0.01 | 86 | 1012.0 |
| 20260905223539 | 66 | 237 | 0.0 | 1.0 | 0.00 | 0.01 | 0.01 | 85 | 1012.0 |
| 20260905223041 | 66 | 237 | 0.0 | 2.0 | 0.00 | 0.01 | 0.01 | 85 | 1012.0 |
| 20260905222547 | 67 | 237 | 0.0 | 2.0 | 0.00 | 0.01 | 0.01 | 83 | 1011.9 |
| 20260905222025 | 67 | 239 | 0.0 | 1.0 | 0.00 | 0.01 | 0.01 | 82 | 1011.8 |
| 20260905221528 | 67 | 239 | 0.0 | 1.0 | 0.00 | 0.01 | 0.01 | 82 | 1011.9 |
| 20260905221049 | 68 | 240 | 0.0 | 3.0 | 0.00 | 0.01 | 0.01 | 79 | 1011.8 |
| 20260905220533 | 68 | 240 | 0.0 | 3.0 | 0.00 | 0.01 | 0.01 | 77 | 1011.8 |
| 20260905220034 | 68 | 246 | 1.0 | 4.0 | 0.00 | 0.01 | 0.01 | 75 | 1011.7 |
| 20260905215542 | 68 | 232 | 0.0 | 4.0 | 0.00 | 0.01 | 0.01 | 75 | 1011.7 |
| 20260905215040 | 68 | 237 | 1.0 | 4.0 | 0.00 | 0.01 | 0.01 | 76 | 1011.6 |
| 20260905214543 | 68 | 229 | 0.0 | 4.0 | 0.00 | 0.01 | 0.01 | 75 | 1011.5 |
| 20260905214028 | 68 | 226 | 1.0 | 4.0 | 0.00 | 0.01 | 0.01 | 75 | 1011.5 |
| 20260905213538 | 69 | 246 | 1.0 | 4.0 | 0.00 | 0.01 | 0.01 | 75 | 1011.4 |
| 20260905213101 | 69 | 224 | 1.0 | 2.0 | 0.00 | 0.01 | 0.01 | 75 | 1011.3 |
| 20260905212558 | 69 | 229 | 0.0 | 3.0 | 0.00 | 0.01 | 0.01 | 75 | 1011.3 |
| 20260905212026 | 69 | 229 | 1.0 | 4.0 | 0.00 | 0.01 | 0.01 | 73 | 1011.4 |
| 20260905211528 | 69 | 244 | 1.0 | 4.0 | 0.00 | 0.01 | 0.01 | 74 | 1011.4 |
| 20260905211046 | 69 | 313 | 2.0 | 4.0 | 0.00 | 0.01 | 0.01 | 74 | 1011.3 |
| 20260905210553 | 69 | 320 | 1.0 | 4.0 | 0.00 | 0.01 | 0.01 | 78 | 1011.1 |
| 20260905210055 | 69 | 232 | 1.0 | 4.0 | 0.00 | 0.01 | 0.01 | 81 | 1011.0 |
| 20260905205536 | 68 | 229 | 1.0 | 4.0 | 0.00 | 0.01 | 0.01 | 81 | 1010.8 |
| 20260905205039 | 68 | 76 | 0.0 | 0.0 | 0.00 | 0.01 | 0.01 | 85 | 1010.9 |
| 20260905204542 | 68 | 252 | 0.0 | 0.0 | 0.00 | 0.01 | 0.01 | 85 | 1011.0 |
| 20260905204117 | 68 | 279 | 0.0 | 0.0 | 0.00 | 0.01 | 0.01 | 87 | 1011.0 |
| 20260905203603 | 67 | 279 | 0.0 | 0.0 | 0.00 | 0.01 | 0.01 | 87 | 1011.0 |
| 20260905203044 | 67 | 279 | 0.0 | 0.0 | 0.00 | 0.01 | 0.01 | 87 | 1011.1 |
| 20260905202527 | 67 | 281 | 0.0 | 0.0 | 0.00 | 0.01 | 0.01 | 86 | 1011.0 |
| 20260905202050 | 67 | 281 | 0.0 | 0.0 | 0.00 | 0.01 | 0.01 | 84 | 1011.1 |
| 20260905201532 | 67 | 281 | 0.0 | 0.0 | 0.00 | 0.01 | 0.01 | 84 | 1011.1 |
| 20260905201031 | 67 | 281 | 0.0 | 0.0 | 0.00 | 0.01 | 0.01 | 84 | 1011.1 |
| 20260905200536 | 67 | 281 | 0.0 | 0.0 | 0.00 | 0.01 | 0.01 | 82 | 1011.1 |
| 20260905200055 | 67 | 298 | 0.0 | 0.0 | 0.00 | 0.01 | 0.01 | 82 | 1011.1 |
| 20260905195540 | 67 | 229 | 0.0 | 0.0 | 0.00 | 0.01 | 0.01 | 82 | 1011.1 |
| 20260905195103 | 67 | 229 | 0.0 | 0.0 | 0.00 | 0.01 | 0.01 | 81 | 1011.1 |
| 20260905194616 | 66 | 223 | 0.0 | 0.0 | 0.00 | 0.01 | 0.01 | 82 | 1011.1 |
| 20260905194057 | 66 | 227 | 0.0 | 1.0 | 0.01 | 0.01 | 0.01 | 84 | 1011.1 |
| 20260905193541 | 66 | 223 | 0.0 | 0.0 | 0.01 | 0.01 | 0.01 | 85 | 1011.0 |
| 20260905193046 | 65 | 202 | 0.0 | 0.0 | 0.01 | 0.01 | 0.01 | 85 | 1011.1 |
| 20260905192549 | 65 | 198 | 0.0 | 0.0 | 0.01 | 0.01 | 0.01 | 88 | 1011.1 |
| 20260905192052 | 65 | 198 | 0.0 | 0.0 | 0.01 | 0.01 | 0.01 | 89 | 1011.1 |
| 20260905191534 | 65 | 196 | 0.0 | 0.0 | 0.01 | 0.01 | 0.01 | 89 | 1011.2 |
| 20260905191036 | 65 | 196 | 0.0 | 0.0 | 0.01 | 0.01 | 0.01 | 90 | 1011.1 |
| 20260905190541 | 65 | 196 | 0.0 | 0.0 | 0.01 | 0.01 | 0.01 | 90 | 1011.2 |
| 20260905190045 | 65 | 196 | 0.0 | 0.0 | 0.01 | 0.01 | 0.01 | 89 | 1011.2 |
| 20260905185530 | 66 | 196 | 0.0 | 2.0 | 0.01 | 0.01 | 0.01 | 87 | 1011.2 |
| 20260905185036 | 66 | 196 | 1.0 | 2.0 | 0.01 | 0.01 | 0.01 | 84 | 1011.1 |
| 20260905184614 | 67 | 196 | 1.0 | 2.0 | 0.01 | 0.01 | 0.01 | 80 | 1011.1 |
| 20260905184056 | 68 | 178 | 0.0 | 2.0 | 0.00 | 0.00 | 0.00 | 76 | 1011.1 |
| 20260905183536 | 69 | 186 | 1.0 | 2.0 | 0.00 | 0.00 | 0.00 | 76 | 1011.1 |
| 20260905183037 | 69 | 184 | 0.0 | 3.0 | 0.00 | 0.00 | 0.00 | 72 | 1011.0 |
| 20260905182615 | 70 | 184 | 1.0 | 3.0 | 0.00 | 0.00 | 0.00 | 71 | 1011.0 |
| 20260905182025 | 70 | 219 | 0.0 | 3.0 | 0.00 | 0.00 | 0.00 | 71 | 1011.0 |
| 20260905181527 | 71 | 288 | 0.0 | 4.0 | 0.00 | 0.00 | 0.00 | 72 | 1010.9 |
| 20260905181048 | 71 | 289 | 1.0 | 5.0 | 0.00 | 0.00 | 0.00 | 70 | 1010.9 |
| 20260905180548 | 71 | 324 | 2.0 | 4.0 | 0.00 | 0.00 | 0.00 | 69 | 1011.0 |
| 20260905180050 | 70 | 296 | 1.0 | 3.0 | 0.00 | 0.00 | 0.00 | 70 | 1011.0 |
| 20260905175535 | 70 | 318 | 2.0 | 3.0 | 0.00 | 0.00 | 0.00 | 74 | 1011.0 |
| 20260905175037 | 69 | 340 | 1.0 | 3.0 | 0.00 | 0.00 | 0.00 | 72 | 1011.0 |
| 20260905174541 | 69 | 285 | 0.0 | 3.0 | 0.00 | 0.00 | 0.00 | 73 | 1011.0 |
| 20260905174043 | 69 | 323 | 1.0 | 3.0 | 0.00 | 0.00 | 0.00 | 73 | 1011.1 |
| 20260905173528 | 68 | 214 | 0.0 | 2.0 | 0.00 | 0.00 | 0.00 | 74 | 1011.1 |
| 20260905173101 | 68 | 215 | 0.0 | 3.0 | 0.00 | 0.00 | 0.00 | 76 | 1011.1 |
| 20260905172545 | 68 | 329 | 1.0 | 3.0 | 0.00 | 0.00 | 0.00 | 75 | 1011.2 |
| 20260905172047 | 68 | 313 | 1.0 | 4.0 | 0.00 | 0.00 | 0.00 | 74 | 1011.1 |
| 20260905171549 | 68 | 225 | 0.0 | 4.0 | 0.00 | 0.00 | 0.00 | 74 | 1011.2 |
| 20260905171031 | 68 | 227 | 1.0 | 4.0 | 0.00 | 0.00 | 0.00 | 72 | 1011.1 |
| 20260905170611 | 69 | 247 | 0.0 | 2.0 | 0.00 | 0.00 | 0.00 | 74 | 1011.1 |
| 20260905170047 | 68 | 279 | 0.0 | 2.0 | 0.00 | 0.00 | 0.00 | 71 | 1011.1 |
| 20260905165532 | 68 | 259 | 1.0 | 2.0 | 0.00 | 0.00 | 0.00 | 72 | 1011.1 |
| 20260905165042 | 68 | 248 | 0.0 | 2.0 | 0.00 | 0.00 | 0.00 | 74 | 1011.1 |
| 20260905164525 | 69 | 325 | 0.0 | 3.0 | 0.00 | 0.00 | 0.00 | 71 | 1011.1 |
| 20260905164047 | 69 | 335 | 1.0 | 4.0 | 0.00 | 0.00 | 0.00 | 71 | 1011.0 |
| 20260905163606 | 69 | 221 | 1.0 | 4.0 | 0.00 | 0.00 | 0.00 | 69 | 1010.9 |
| 20260905163049 | 69 | 278 | 1.0 | 3.0 | 0.00 | 0.00 | 0.00 | 72 | 1011.0 |
| 20260905162552 | 69 | 226 | 1.0 | 3.0 | 0.00 | 0.00 | 0.00 | 72 | 1011.0 |
| 20260905162034 | 69 | 267 | 0.0 | 5.0 | 0.00 | 0.00 | 0.00 | 72 | 1011.0 |